EDT,Max TemperatureF,Mean TemperatureF,Min TemperatureF,Max Dew PointF,MeanDew PointF,Min DewpointF,Max Humidity, Mean Humidity, Min Humidity, Max Sea Level PressureIn, Mean Sea Level PressureIn, Min Sea Level PressureIn, Max VisibilityMiles, Mean VisibilityMiles, Min VisibilityMiles, Max Wind SpeedMPH, Mean Wind SpeedMPH, Max Gust SpeedMPH,PrecipitationIn, CloudCover, Events, WindDirDegrees
2013-8-1,75,68,60,63,60,56,100,77,53,30.01,29.93,29.89,10,7,1,15,7,31,0.03,6,Rain,253
2013-8-2,73,65,56,57,54,49,93,69,44,30.01,29.97,29.92,10,10,7,21,9,30,0.00,1,,245
2013-8-3,68,63,57,61,58,53,97,85,73,30.02,29.99,29.94,10,9,6,23,9,36,0.02,6,Rain,252
2013-8-4,69,60,51,54,50,47,96,71,45,30.11,30.06,30.01,10,10,10,18,9,25,0.00,4,,305
2013-8-5,70,60,49,51,48,44,93,69,45,30.15,30.11,30.07,10,10,10,14,5,20,0.00,1,,282
2013-8-6,74,64,53,59,53,46,97,75,53,30.09,30.05,30.04,10,10,8,12,6,16,0.00,3,,107
2013-8-7,77,70,62,66,62,59,93,81,69,30.09,30.05,29.99,10,8,0,25,8,33,1.22,6,Fog-Rain-Thunderstorm,152
2013-8-8,76,69,62,70,66,60,97,86,74,30.07,30.03,29.96,10,6,0,13,7,18,2.64,7,Fog-Rain-Thunderstorm,178
2013-8-9,76,71,65,70,67,64,100,87,74,30.05,29.97,29.93,10,5,0,16,7,23,0.28,7,Fog-Rain,247
2013-8-10,75,68,60,63,57,50,93,75,57,30.13,30.09,30.04,10,10,7,14,6,23,T,2,,291
2013-8-11,77,69,60,64,61,58,97,79,60,30.18,30.11,30.06,10,9,2,12,5,17,0.20,5,Rain,265
2013-8-12,77,69,61,64,61,58,100,77,54,30.13,30.07,29.94,10,4,0,12,5,16,0.01,5,Fog-Rain,245
2013-8-13,72,61,50,64,59,45,100,81,61,29.97,29.87,29.83,10,7,2,20,10,25,0.22,6,Rain,271
2013-8-14,62,55,47,49,46,44,86,73,60,30.16,30.06,29.96,10,10,5,18,10,24,T,5,Rain,300
2013-8-15,68,57,45,49,45,43,100,71,42,30.23,30.19,30.14,10,10,10,6,2,,0.00,1,,257
2013-8-16,71,61,51,54,49,42,83,68,53,30.22,30.18,30.15,10,10,10,8,2,10,0.00,2,,163
2013-8-17,69,62,54,54,51,49,83,65,47,30.30,30.27,30.23,10,10,10,16,5,21,0.00,0,,135
2013-8-18,64,60,56,58,54,51,93,83,72,30.31,30.25,30.20,10,10,10,12,5,15,0.01,5,Rain,161
2013-8-19,72,65,58,63,60,56,100,87,73,30.19,30.16,30.11,10,6,0,10,4,14,0.14,7,Fog-Rain,257
2013-8-20,76,66,56,61,57,53,100,73,46,30.23,30.19,30.14,10,7,0,9,4,13,0.00,1,Fog,256
2013-8-21,78,68,58,66,60,55,93,74,54,30.27,30.19,30.12,10,9,6,9,4,13,T,2,Rain,220
2013-8-22,77,70,62,66,63,60,93,79,64,30.16,30.09,30.02,10,9,2,15,8,20,0.11,6,Rain-Thunderstorm,262
2013-8-23,74,66,58,65,62,54,100,75,49,30.18,30.08,30.02,10,4,0,9,2,14,0.02,6,Fog-Rain,351
2013-8-24,75,64,53,55,51,46,93,67,41,30.36,30.30,30.20,10,10,10,12,3,16,0.00,1,,80
2013-8-25,75,66,56,57,53,50,80,63,46,30.42,30.35,30.30,10,10,10,12,6,15,0.00,1,,223
2013-8-26,78,68,58,62,58,54,93,75,56,30.29,30.19,30.05,10,10,10,17,9,26,0.00,0,,245
2013-8-27,76,72,67,70,66,62,93,84,74,30.07,30.02,29.97,10,6,1,16,7,21,0.10,7,Rain-Thunderstorm,261
2013-8-28,72,69,65,70,66,64,100,95,90,30.04,29.95,29.85,10,4,0,15,4,22,0.56,8,Fog-Rain-Thunderstorm,234
2013-8-29,80,72,64,66,65,61,100,76,51,30.10,30.03,29.95,10,6,0,8,3,12,0.00,5,Fog,43
2013-8-30,80,71,62,64,63,61,93,76,58,30.06,29.99,29.90,10,10,7,14,6,20,0.00,0,,226
2013-8-31,80,73,66,68,65,59,100,76,52,29.94,29.88,29.83,10,9,4,17,8,21,0.00,1,,226